createdAt,value
2019-04-26T00:01:38.101Z,10.70
2019-04-26T00:04:04.655Z,10.70
2019-04-26T00:06:31.000Z,10.70
2019-04-26T00:09:17.905Z,10.70
2019-04-26T00:11:46.153Z,10.70
2019-04-26T00:14:17.019Z,10.60
2019-04-26T00:16:47.958Z,10.60
2019-04-26T00:19:14.337Z,10.60
2019-04-26T00:21:40.873Z,10.60
2019-04-26T00:24:07.609Z,10.60
2019-04-26T00:26:34.257Z,10.60
2019-04-26T00:29:00.606Z,10.60
2019-04-26T00:31:26.858Z,10.60
2019-04-26T00:33:53.305Z,10.60
2019-04-26T00:36:20.762Z,10.60
2019-04-26T00:38:47.197Z,10.60
2019-04-26T00:41:14.153Z,10.60
2019-04-26T00:43:40.689Z,10.60
2019-04-26T00:46:08.129Z,10.60
2019-04-26T00:48:34.877Z,10.60
2019-04-26T00:51:02.918Z,10.60
2019-04-26T00:53:32.261Z,10.60
2019-04-26T00:55:59.400Z,10.60
2019-04-26T00:58:27.640Z,10.60
2019-04-26T01:00:54.091Z,10.60
2019-04-26T01:03:20.670Z,10.50
2019-04-26T01:05:59.221Z,10.50
2019-04-26T01:08:15.828Z,10.50
2019-04-26T01:10:42.277Z,10.50
2019-04-26T01:13:08.920Z,10.50
2019-04-26T01:15:35.457Z,10.40
2019-04-26T01:18:01.717Z,10.40
2019-04-26T01:20:30.677Z,10.40
2019-04-26T01:23:00.726Z,10.50
2019-04-26T01:25:33.637Z,10.50
2019-04-26T01:28:01.370Z,10.40
2019-04-26T01:30:31.220Z,10.40
2019-04-26T01:32:58.589Z,10.40
2019-04-26T01:35:28.385Z,10.40
2019-04-26T01:37:55.533Z,10.30
2019-04-26T01:40:24.133Z,10.30
2019-04-26T01:42:52.627Z,10.30
2019-04-26T01:45:36.393Z,10.20
2019-04-26T01:48:08.317Z,10.20
2019-04-26T01:50:35.075Z,10.20
2019-04-26T01:53:03.501Z,10.20
2019-04-26T01:55:31.328Z,10.20
2019-04-26T01:58:01.313Z,10.20
2019-04-26T02:00:38.530Z,10.20
2019-04-26T02:03:15.900Z,10.20
2019-04-26T02:05:42.337Z,10.20
2019-04-26T02:08:08.779Z,10.10
2019-04-26T02:10:35.248Z,10.10
2019-04-26T02:13:01.608Z,10.10
2019-04-26T02:15:31.346Z,10.10
2019-04-26T02:17:58.282Z,10.10
2019-04-26T02:20:58.392Z,10.10
2019-04-26T02:23:26.641Z,10.20
2019-04-26T02:25:53.084Z,10.20
2019-04-26T02:28:19.540Z,10.10
2019-04-26T02:30:45.975Z,10.10
2019-04-26T02:33:12.625Z,10.10
2019-04-26T02:35:39.280Z,10.20
2019-04-26T02:38:05.725Z,10.20
2019-04-26T02:40:33.117Z,10.20
2019-04-26T02:43:00.471Z,10.20
2019-04-26T02:45:44.265Z,10.20
2019-04-26T02:48:16.227Z,10.20
2019-04-26T02:53:31.712Z,10.20
2019-04-26T02:56:12.015Z,10.20
2019-04-26T02:58:52.207Z,10.20
2019-04-26T03:01:34.124Z,10.20
2019-04-26T03:04:13.248Z,10.20
2019-04-26T03:07:02.885Z,10.30
2019-04-26T03:09:34.987Z,10.20
2019-04-26T03:12:14.599Z,10.30
2019-04-26T03:15:13.179Z,10.20
2019-04-26T03:17:45.003Z,10.20
2019-04-26T03:20:24.118Z,10.20
2019-04-26T03:23:04.234Z,10.10
2019-04-26T03:25:44.113Z,10.20
2019-04-26T03:28:23.274Z,10.30
2019-04-26T03:31:03.398Z,10.30
2019-04-26T03:33:52.541Z,10.40
2019-04-26T03:36:26.537Z,10.30
2019-04-26T03:39:08.403Z,10.30
2019-04-26T03:41:52.739Z,10.20
2019-04-26T03:44:33.082Z,10.20
2019-04-26T03:47:13.665Z,10.30
2019-04-26T03:50:19.621Z,10.20
2019-04-26T03:52:59.059Z,10.20
2019-04-26T03:55:43.273Z,10.20
2019-04-26T03:58:23.609Z,10.20
2019-04-26T04:01:07.495Z,10.20
2019-04-26T04:03:51.907Z,10.40
2019-04-26T04:12:44.421Z,10.40
2019-04-26T04:18:56.384Z,10.30
2019-04-26T04:24:51.507Z,10.40
2019-04-26T04:27:30.843Z,10.30
2019-04-26T04:30:10.765Z,10.40
2019-04-26T04:32:52.160Z,10.50
2019-04-26T04:35:31.792Z,10.30
2019-04-26T04:38:11.706Z,10.40
2019-04-26T04:41:11.449Z,10.50
2019-04-26T04:43:53.248Z,10.50
2019-04-26T04:46:54.059Z,10.60
2019-04-26T04:49:53.627Z,10.60
2019-04-26T04:52:32.990Z,10.70
2019-04-26T04:55:12.881Z,10.70
2019-04-26T04:57:52.917Z,10.70
2019-04-26T05:03:45.599Z,10.80
2019-04-26T05:06:30.396Z,10.80
2019-04-26T05:09:09.830Z,10.80
2019-04-26T05:11:49.837Z,10.80
2019-04-26T05:14:29.504Z,10.90
2019-04-26T05:17:09.132Z,11.00
2019-04-26T05:19:49.026Z,11.00
2019-04-26T05:22:28.813Z,11.10
2019-04-26T05:25:08.858Z,11.10
2019-04-26T05:27:50.893Z,11.20
2019-04-26T05:30:31.984Z,11.30
2019-04-26T05:33:17.278Z,11.30
2019-04-26T05:35:58.977Z,11.30
2019-04-26T05:38:38.921Z,11.50
2019-04-26T05:41:19.622Z,11.50
2019-04-26T05:44:00.939Z,11.60
2019-04-26T05:47:01.005Z,11.50
2019-04-26T05:52:47.898Z,12.10
2019-04-26T05:55:32.321Z,12.50
2019-04-26T05:58:11.706Z,12.90
2019-04-26T06:04:18.481Z,13.40
2019-04-26T06:07:05.235Z,13.60
2019-04-26T06:10:05.770Z,13.80
2019-04-26T06:13:04.781Z,14.20
2019-04-26T06:15:46.001Z,14.20
2019-04-26T06:18:28.070Z,14.20
2019-04-26T06:21:08.036Z,14.10
2019-04-26T06:23:48.059Z,13.80
2019-04-26T06:26:29.051Z,13.70
2019-04-26T06:29:08.290Z,13.70
2019-04-26T06:31:48.311Z,13.40
2019-04-26T06:34:28.318Z,13.30
2019-04-26T06:40:06.634Z,13.30
2019-04-26T06:42:46.515Z,13.20
2019-04-26T06:48:39.616Z,13.20
2019-04-26T06:51:24.828Z,13.20
2019-04-26T06:54:00.676Z,13.00
2019-04-26T06:56:41.848Z,13.20
2019-04-26T06:59:21.955Z,13.10
2019-04-26T07:02:02.919Z,13.20
2019-04-26T07:04:42.934Z,13.20
2019-04-26T07:07:22.950Z,13.30
2019-04-26T07:10:02.280Z,13.30
2019-04-26T07:12:43.925Z,13.30
2019-04-26T07:15:28.676Z,13.40
2019-04-26T07:18:07.005Z,13.50
2019-04-26T07:20:51.554Z,13.60
2019-04-26T07:23:50.574Z,13.70
2019-04-26T07:26:29.794Z,13.90
2019-04-26T07:29:11.637Z,14.10
2019-04-26T07:31:50.934Z,14.20
2019-04-26T07:34:32.058Z,14.30
2019-04-26T07:37:12.366Z,14.40
2019-04-26T07:40:12.041Z,14.70
2019-04-26T07:42:53.447Z,14.70
2019-04-26T07:45:34.480Z,14.90
2019-04-26T07:48:17.353Z,15.10
2019-04-26T07:50:56.729Z,15.30
2019-04-26T07:53:36.892Z,15.20
2019-04-26T07:56:16.739Z,15.20
2019-04-26T07:58:56.613Z,15.10
2019-04-26T08:01:55.641Z,15.10
2019-04-26T08:04:35.358Z,15.10
2019-04-26T08:07:15.356Z,15.00
2019-04-26T08:09:59.687Z,15.10
2019-04-26T08:12:36.810Z,15.10
2019-04-26T08:15:18.653Z,15.20
2019-04-26T08:18:02.390Z,15.30
2019-04-26T08:23:41.420Z,15.30
2019-04-26T08:26:19.395Z,15.20
2019-04-26T08:29:00.586Z,15.20
2019-04-26T08:31:40.365Z,15.30
2019-04-26T08:34:28.930Z,15.20
2019-04-26T08:37:22.910Z,15.40
2019-04-26T08:40:02.910Z,15.40
2019-04-26T08:42:44.394Z,15.50
2019-04-26T08:45:29.409Z,15.60
2019-04-26T08:48:12.242Z,15.70
2019-04-26T08:50:53.447Z,15.70
2019-04-26T08:53:32.661Z,15.60
2019-04-26T08:56:15.310Z,15.70
2019-04-26T08:58:53.654Z,15.80
2019-04-26T09:01:35.443Z,15.90
2019-04-26T09:04:34.423Z,15.80
2019-04-26T09:07:18.518Z,15.80
2019-04-26T09:10:01.439Z,15.90
2019-04-26T09:12:38.722Z,15.90
2019-04-26T09:15:17.949Z,16.10
2019-04-26T09:17:57.843Z,16.20
2019-04-26T09:20:38.604Z,16.30
2019-04-26T09:23:20.953Z,16.20
2019-04-26T09:26:08.711Z,16.30
2019-04-26T09:29:08.946Z,16.40
2019-04-26T09:32:08.146Z,16.50
2019-04-26T09:34:48.021Z,16.80
2019-04-26T09:37:27.629Z,17.00
2019-04-26T09:40:10.604Z,17.10
2019-04-26T09:43:10.427Z,17.20
2019-04-26T09:45:52.463Z,17.40
2019-04-26T09:48:51.471Z,17.60
2019-04-26T09:51:34.787Z,18.00
2019-04-26T09:54:15.317Z,18.10
2019-04-26T09:56:54.049Z,18.00
2019-04-26T09:59:36.327Z,18.40
2019-04-26T10:05:17.708Z,18.10
2019-04-26T10:07:55.522Z,17.70
2019-04-26T10:10:35.380Z,17.50
2019-04-26T10:13:35.773Z,17.60
2019-04-26T10:16:16.826Z,17.60
2019-04-26T10:18:58.246Z,17.80
2019-04-26T10:21:38.289Z,17.80
2019-04-26T10:24:17.405Z,17.90
2019-04-26T10:26:59.199Z,18.50
2019-04-26T10:29:38.660Z,18.80
2019-04-26T10:32:16.062Z,19.10
2019-04-26T10:34:55.662Z,19.30
2019-04-26T10:37:39.573Z,19.60
2019-04-26T10:40:16.758Z,19.80
2019-04-26T10:42:56.830Z,19.50
2019-04-26T10:45:36.142Z,19.70
2019-04-26T10:48:15.917Z,19.80
2019-04-26T10:50:55.813Z,19.70
2019-04-26T10:53:39.696Z,19.80
2019-04-26T10:56:25.243Z,19.70
2019-04-26T10:59:25.026Z,19.90
2019-04-26T11:02:06.185Z,19.90
2019-04-26T11:04:45.401Z,20.00
2019-04-26T11:07:26.274Z,20.00
2019-04-26T11:10:07.027Z,20.00
2019-04-26T11:12:46.334Z,19.80
2019-04-26T11:15:25.526Z,19.60
2019-04-26T11:18:05.646Z,19.60
2019-04-26T11:20:45.893Z,19.70
2019-04-26T11:23:26.434Z,19.60
2019-04-26T11:26:05.645Z,19.60
2019-04-26T11:28:44.826Z,19.60
2019-04-26T11:31:27.846Z,19.60
2019-04-26T11:34:05.855Z,19.70
2019-04-26T11:36:45.624Z,19.60
2019-04-26T11:39:27.953Z,19.80
2019-04-26T11:42:08.001Z,20.10
2019-04-26T11:44:47.760Z,20.10
2019-04-26T11:47:27.780Z,20.30
2019-04-26T11:50:07.922Z,20.20
2019-04-26T11:52:47.818Z,20.10
2019-04-26T11:55:29.769Z,20.20
2019-04-26T11:58:06.145Z,20.20
2019-04-26T12:04:12.843Z,20.20
2019-04-26T12:07:12.333Z,20.10
2019-04-26T12:09:53.358Z,19.80
2019-04-26T12:12:30.729Z,19.90
2019-04-26T12:15:10.463Z,19.90
2019-04-26T12:17:58.371Z,19.60
2019-04-26T12:20:31.416Z,19.70
2019-04-26T12:23:16.306Z,19.50
2019-04-26T12:25:52.522Z,19.50
2019-04-26T12:28:32.502Z,19.40
2019-04-26T12:31:14.955Z,19.40
2019-04-26T12:33:53.487Z,19.30
2019-04-26T12:36:33.410Z,19.20
2019-04-26T12:39:15.207Z,19.30
2019-04-26T12:41:54.335Z,19.40
2019-04-26T12:47:46.001Z,19.30
2019-04-26T12:50:29.374Z,19.10
2019-04-26T12:53:07.611Z,19.20
2019-04-26T12:55:49.258Z,19.20
2019-04-26T12:58:27.846Z,19.00
2019-04-26T13:01:08.029Z,19.20
2019-04-26T13:04:07.876Z,18.90
2019-04-26T13:06:48.912Z,18.80
2019-04-26T13:09:27.961Z,18.50
2019-04-26T13:12:12.095Z,18.60
2019-04-26T13:14:56.315Z,18.70
2019-04-26T13:17:40.165Z,18.80
2019-04-26T13:20:19.453Z,18.90
2019-04-26T13:26:11.685Z,18.60
2019-04-26T13:28:52.453Z,18.30
2019-04-26T13:31:32.599Z,18.50
2019-04-26T13:34:12.420Z,18.50
2019-04-26T13:36:51.473Z,18.60
2019-04-26T13:39:30.607Z,18.30
2019-04-26T13:42:13.650Z,18.30
2019-04-26T13:48:19.332Z,18.20
2019-04-26T13:51:05.657Z,18.20
2019-04-26T13:53:44.949Z,18.20
2019-04-26T13:56:24.945Z,18.30
2019-04-26T13:59:05.049Z,18.70
2019-04-26T14:01:44.321Z,19.10
2019-04-26T14:04:24.086Z,19.20
2019-04-26T14:07:04.133Z,19.50
2019-04-26T14:09:43.857Z,19.50
2019-04-26T14:12:23.857Z,19.30
2019-04-26T14:15:04.462Z,19.30
2019-04-26T14:17:45.029Z,19.20
2019-04-26T14:20:26.591Z,19.30
2019-04-26T14:23:25.659Z,19.30
2019-04-26T14:26:24.973Z,19.40
2019-04-26T14:29:05.005Z,19.40
2019-04-26T14:31:47.325Z,19.40
2019-04-26T14:34:25.257Z,19.40
2019-04-26T14:37:06.626Z,19.40
2019-04-26T14:39:50.663Z,19.30
2019-04-26T14:42:34.394Z,19.20
2019-04-26T14:45:07.786Z,19.20
2019-04-26T14:47:47.947Z,19.10
2019-04-26T14:50:28.143Z,19.10
2019-04-26T14:53:13.309Z,19.00
2019-04-26T14:55:54.603Z,19.00
2019-04-26T14:58:34.289Z,18.80
2019-04-26T15:04:28.389Z,18.70
2019-04-26T15:07:09.297Z,18.50
2019-04-26T15:09:49.081Z,17.90
2019-04-26T15:12:28.235Z,17.70
2019-04-26T15:15:08.116Z,17.40
2019-04-26T15:17:48.155Z,17.30
2019-04-26T15:20:28.211Z,17.20
2019-04-26T15:23:08.402Z,17.00
2019-04-26T15:25:49.816Z,16.90
2019-04-26T15:31:28.385Z,16.80
2019-04-26T15:34:07.626Z,17.00
2019-04-26T15:36:47.995Z,16.80
2019-04-26T15:39:50.320Z,16.80
2019-04-26T15:42:58.874Z,16.80
2019-04-26T15:48:39.555Z,16.70
2019-04-26T15:51:20.108Z,16.70
2019-04-26T15:54:01.135Z,16.50
2019-04-26T15:56:40.615Z,17.30
2019-04-26T15:59:22.743Z,17.00
2019-04-26T16:02:02.497Z,16.90
2019-04-26T16:04:42.639Z,16.70
2019-04-26T16:07:27.680Z,16.60
2019-04-26T16:10:04.326Z,16.50
2019-04-26T16:12:44.114Z,16.40
2019-04-26T16:15:23.412Z,16.30
2019-04-26T16:18:04.177Z,16.20
2019-04-26T16:20:44.483Z,16.20
2019-04-26T16:23:24.228Z,16.10
2019-04-26T16:26:03.951Z,16.10
2019-04-26T16:29:03.054Z,16.10
2019-04-26T16:31:49.986Z,16.10
2019-04-26T16:34:32.444Z,15.90
2019-04-26T16:37:14.937Z,16.10
2019-04-26T16:39:53.301Z,15.90
2019-04-26T16:42:33.228Z,15.70
2019-04-26T16:45:13.081Z,15.60
2019-04-26T16:47:50.336Z,15.50
2019-04-26T16:50:43.869Z,15.50
2019-04-26T16:53:37.718Z,15.50
2019-04-26T16:55:58.806Z,15.50
2019-04-26T16:58:42.467Z,15.40
2019-04-26T17:01:19.434Z,15.30
2019-04-26T17:03:58.685Z,15.40
2019-04-26T17:06:44.439Z,15.10
2019-04-26T17:09:19.121Z,15.10
2019-04-26T17:11:59.269Z,15.10
2019-04-26T17:14:40.617Z,15.00
2019-04-26T17:20:34.025Z,14.80
2019-04-26T17:23:33.472Z,14.80
2019-04-26T17:26:17.760Z,14.70
2019-04-26T17:28:57.141Z,14.70
2019-04-26T17:31:37.014Z,14.70
2019-04-26T17:34:16.905Z,14.50
2019-04-26T17:36:56.015Z,14.50
2019-04-26T17:39:36.042Z,14.50
2019-04-26T17:42:15.155Z,14.50
2019-04-26T17:44:57.531Z,14.40
2019-04-26T17:47:39.897Z,14.30
2019-04-26T17:50:17.197Z,14.20
2019-04-26T17:52:54.498Z,14.20
2019-04-26T17:55:41.538Z,14.00
2019-04-26T17:58:27.506Z,14.10
2019-04-26T18:01:03.871Z,14.00
2019-04-26T18:03:50.842Z,13.80
2019-04-26T18:06:29.955Z,13.80
2019-04-26T18:09:06.486Z,13.70
2019-04-26T18:11:46.117Z,13.70
2019-04-26T18:17:28.701Z,13.60
2019-04-26T18:20:28.002Z,13.50
2019-04-26T18:23:16.992Z,13.50
2019-04-26T18:25:53.440Z,13.40
2019-04-26T18:28:34.006Z,13.40
2019-04-26T18:31:17.733Z,13.20
2019-04-26T18:34:00.552Z,13.30
2019-04-26T18:36:36.929Z,13.10
2019-04-26T18:39:18.013Z,12.90
2019-04-26T18:41:58.369Z,13.10
2019-04-26T18:44:43.389Z,12.90
2019-04-26T18:47:27.573Z,12.90
2019-04-26T18:50:06.238Z,12.90
2019-04-26T18:53:06.097Z,12.80
2019-04-26T18:58:39.654Z,12.80
2019-04-26T19:01:19.617Z,12.70
2019-04-26T19:04:00.596Z,12.60
2019-04-26T19:06:42.219Z,12.60
2019-04-26T19:09:23.026Z,12.60
2019-04-26T19:12:02.396Z,12.60
2019-04-26T19:15:07.164Z,12.50
2019-04-26T19:17:46.566Z,12.50
2019-04-26T19:20:45.569Z,12.50
2019-04-26T19:23:29.033Z,12.40
2019-04-26T19:29:15.433Z,12.20
2019-04-26T19:31:45.786Z,12.20
2019-04-26T19:34:26.036Z,12.30
2019-04-26T19:37:05.990Z,12.30
2019-04-26T19:39:45.899Z,12.20
2019-04-26T19:42:23.081Z,12.00
2019-04-26T19:48:18.728Z,12.00
2019-04-26T19:50:55.349Z,11.90
2019-04-26T19:53:55.287Z,11.90
2019-04-26T19:56:36.584Z,11.90
2019-04-26T19:59:15.798Z,11.70
2019-04-26T20:01:57.635Z,11.70
2019-04-26T20:04:37.037Z,11.70
2019-04-26T20:07:14.373Z,11.70
2019-04-26T20:09:56.328Z,11.50
2019-04-26T20:12:37.939Z,11.50
2019-04-26T20:15:26.007Z,11.50
2019-04-26T20:17:59.692Z,11.40
2019-04-26T20:20:37.993Z,11.40
2019-04-26T20:23:19.444Z,11.50
2019-04-26T20:26:06.111Z,11.30
2019-04-26T20:28:42.304Z,11.30
2019-04-26T20:31:23.606Z,11.20
2019-04-26T20:34:05.543Z,11.30
2019-04-26T20:36:47.679Z,11.20
2019-04-26T20:39:24.760Z,11.20
2019-04-26T20:42:04.778Z,11.10
2019-04-26T20:44:51.247Z,10.90
2019-04-26T20:47:25.571Z,11.00
2019-04-26T20:50:05.465Z,10.90
2019-04-26T20:52:45.575Z,11.00
2019-04-26T20:55:30.494Z,10.90
2019-04-26T20:58:08.622Z,10.80
2019-04-26T21:00:54.105Z,10.80
2019-04-26T21:03:29.104Z,10.80
2019-04-26T21:06:11.321Z,10.80
2019-04-26T21:08:53.789Z,10.80
2019-04-26T21:11:37.197Z,10.90
2019-04-26T21:14:13.254Z,10.70
2019-04-26T21:16:52.430Z,10.80
2019-04-26T21:19:32.834Z,10.70
2019-04-26T21:22:12.783Z,10.70
2019-04-26T21:25:12.503Z,10.70
2019-04-26T21:27:53.669Z,10.40
2019-04-26T21:33:35.803Z,10.50
2019-04-26T21:36:14.894Z,10.40
2019-04-26T21:41:50.055Z,10.40
2019-04-26T21:44:29.259Z,10.40
2019-04-26T21:47:08.505Z,10.40
2019-04-26T21:49:54.048Z,10.30
2019-04-26T21:52:29.561Z,10.30
2019-04-26T21:55:09.678Z,10.40
2019-04-26T21:57:49.611Z,10.00
2019-04-26T22:00:33.577Z,10.20
2019-04-26T22:03:16.038Z,10.10
2019-04-26T22:05:54.193Z,10.20
2019-04-26T22:11:44.228Z,10.00
2019-04-26T22:14:24.481Z,10.10
2019-04-26T22:17:08.286Z,10.10
2019-04-26T22:20:12.955Z,10.00
2019-04-26T22:25:44.966Z,10.00
2019-04-26T22:28:26.899Z,9.90
2019-04-26T22:31:08.555Z,10.00
2019-04-26T22:33:47.075Z,9.90
2019-04-26T22:36:27.372Z,9.90
2019-04-26T22:39:09.809Z,9.90
2019-04-26T22:41:49.855Z,9.90
2019-04-26T22:44:34.632Z,9.90
2019-04-26T22:47:16.528Z,9.80
2019-04-26T22:49:55.849Z,9.70
2019-04-26T22:52:35.496Z,9.70
2019-04-26T22:55:22.106Z,9.70
2019-04-26T22:57:56.598Z,9.80
2019-04-26T23:00:38.297Z,9.80
2019-04-26T23:03:18.797Z,9.60
2019-04-26T23:05:58.382Z,9.70
2019-04-26T23:08:38.413Z,9.60
2019-04-26T23:11:18.465Z,9.80
2019-04-26T23:14:18.906Z,9.90
2019-04-26T23:17:08.165Z,9.70
2019-04-26T23:19:49.387Z,9.70
2019-04-26T23:22:30.979Z,9.70
2019-04-26T23:25:09.123Z,9.60
2019-04-26T23:27:50.455Z,9.70
2019-04-26T23:30:31.702Z,9.70
2019-04-26T23:33:13.177Z,9.90
2019-04-26T23:41:49.582Z,9.90
2019-04-26T23:44:29.624Z,9.60
2019-04-26T23:47:20.596Z,9.60
2019-04-26T23:49:53.942Z,9.60
2019-04-26T23:52:33.184Z,9.60
2019-04-26T23:55:13.551Z,9.60
2019-04-26T23:57:53.530Z,9.60
